Time;durP1;ratioP1;P1;durP2;ratioP2;P2;SDS_P1;SDS_P2;PMS_P1;PMS_P2;Temp;Humidity;BMP_temperature;BMP_pressure;BME280_temperature;BME280_humidity;BME280_pressure;Samples;Min_cycle;Max_cycle;Signal;HPM_P1;HPM_P2
2022/09/15 00:01:08;;;;;;;2.38;1.00;;;12.70;99.90;;;;;;5052351;28;20025;-80
2022/09/15 00:03:36;;;;;;;1.95;1.00;;;12.70;99.90;;;;;;5052140;28;20032;-79
2022/09/15 00:06:03;;;;;;;3.58;1.20;;;12.70;99.90;;;;;;5052303;28;20576;-79
2022/09/15 00:08:31;;;;;;;3.30;1.20;;;12.70;99.90;;;;;;5052694;28;20398;-80
2022/09/15 00:11:14;;;;;;;4.18;1.48;;;12.70;99.90;;;;;;5051938;28;20017;-79
2022/09/15 00:13:41;;;;;;;2.15;0.98;;;12.90;99.90;;;;;;5051719;28;20052;-78
2022/09/15 00:16:10;;;;;;;2.55;1.23;;;12.90;99.90;;;;;;5049908;28;20094;-79
2022/09/15 00:18:39;;;;;;;2.20;0.90;;;13.10;99.90;;;;;;5053064;28;20017;-77
2022/09/15 00:21:08;;;;;;;2.22;0.98;;;13.10;99.90;;;;;;5050355;28;20044;-76
2022/09/15 00:23:36;;;;;;;3.65;1.00;;;13.20;99.90;;;;;;5058056;28;20377;-78
2022/09/15 00:26:07;;;;;;;3.20;1.20;;;13.20;99.90;;;;;;5060138;28;20025;-81
2022/09/15 00:28:35;;;;;;;3.17;1.33;;;13.10;99.90;;;;;;5067087;28;20032;-83
2022/09/15 00:31:10;;;;;;;2.15;0.90;;;13.10;99.90;;;;;;5054974;28;20362;-84
2022/09/15 00:33:38;;;;;;;1.88;0.80;;;13.10;99.90;;;;;;5073067;28;20465;-84
2022/09/15 00:36:08;;;;;;;1.60;0.90;;;13.20;99.90;;;;;;5070499;28;20043;-75
2022/09/15 00:38:36;;;;;;;2.15;0.80;;;13.20;99.90;;;;;;5055776;28;20044;-78
2022/09/15 00:41:05;;;;;;;2.03;1.15;;;13.30;99.90;;;;;;5054614;28;20362;-77
2022/09/15 00:43:52;;;;;;;2.58;0.57;;;13.30;99.90;;;;;;5056637;28;20021;-76
2022/09/15 00:46:24;;;;;;;1.77;1.02;;;13.30;99.90;;;;;;5056322;28;20080;-74
2022/09/15 00:49:10;;;;;;;5.10;1.45;;;13.30;99.90;;;;;;5051256;28;20104;-75
2022/09/15 00:51:49;;;;;;;3.72;1.50;;;13.30;99.90;;;;;;5064748;28;20031;-77
2022/09/15 00:54:25;;;;;;;3.42;1.05;;;13.30;99.90;;;;;;5059727;28;20036;-76
2022/09/15 00:56:56;;;;;;;4.38;1.25;;;13.20;99.90;;;;;;5041529;28;20052;-77
2022/09/15 00:59:28;;;;;;;3.92;1.20;;;13.20;99.90;;;;;;5049256;28;20029;-78
2022/09/15 01:02:29;;;;;;;2.38;1.00;;;13.20;99.90;;;;;;5053839;28;20045;-77
2022/09/15 01:04:58;;;;;;;8.02;1.42;;;13.30;99.90;;;;;;5057926;28;20068;-76
2022/09/15 01:07:46;;;;;;;3.42;1.40;;;13.30;99.90;;;;;;5066286;28;20493;-77
2022/09/15 01:10:30;;;;;;;2.40;0.98;;;13.30;99.90;;;;;;5054280;28;20036;-75
2022/09/15 01:13:02;;;;;;;3.42;1.02;;;13.30;99.90;;;;;;5063488;28;20543;-76
2022/09/15 01:15:55;;;;;;;2.13;0.70;;;13.30;99.90;;;;;;5064122;28;20029;-77
2022/09/15 01:18:42;;;;;;;5.03;1.30;;;13.20;99.90;;;;;;5056909;28;20039;-77
2022/09/15 01:21:35;;;;;;;2.97;1.17;;;13.20;99.90;;;;;;5047968;28;20055;-76
2022/09/15 01:24:08;;;;;;;1.55;1.05;;;13.20;99.90;;;;;;5037452;28;20037;-77
2022/09/15 01:26:51;;;;;;;2.92;1.48;;;13.30;99.90;;;;;;5056532;28;20108;-77
2022/09/15 01:29:42;;;;;;;2.92;1.20;;;13.30;99.90;;;;;;5053735;28;20470;-77
2022/09/15 01:35:51;;;;;;;2.00;1.25;;;13.30;99.90;;;;;;5056361;28;20035;-76
2022/09/15 01:38:24;;;;;;;2.45;0.95;;;13.30;99.90;;;;;;5053364;28;20059;-76
2022/09/15 01:41:04;;;;;;;1.50;0.90;;;13.30;99.90;;;;;;5055249;28;20482;-77
2022/09/15 01:43:34;;;;;;;3.70;1.90;;;13.40;99.90;;;;;;5055163;28;20041;-77
2022/09/15 01:46:03;;;;;;;4.28;1.25;;;13.40;99.90;;;;;;5055405;28;20382;-78
2022/09/15 01:48:33;;;;;;;2.38;0.90;;;13.50;99.90;;;;;;5055662;28;20477;-76
2022/09/15 01:51:03;;;;;;;3.92;1.40;;;13.50;99.90;;;;;;5053401;28;20059;-77
2022/09/15 01:53:30;;;;;;;3.45;0.98;;;13.60;99.90;;;;;;5053083;28;20029;-76
2022/09/15 01:56:06;;;;;;;1.67;0.80;;;13.70;99.90;;;;;;5053761;28;20027;-78
2022/09/15 01:58:34;;;;;;;3.13;1.08;;;13.80;99.90;;;;;;5049851;28;20405;-77
2022/09/15 02:01:37;;;;;;;4.50;1.00;;;13.80;99.90;;;;;;5057505;28;20033;-78
2022/09/15 02:04:11;;;;;;;2.22;1.35;;;13.90;99.90;;;;;;5051517;28;20430;-78
2022/09/15 02:06:55;;;;;;;3.08;1.02;;;13.80;99.90;;;;;;5053859;28;20482;-77
2022/09/15 02:10:05;;;;;;;1.30;1.00;;;13.80;99.90;;;;;;5051391;28;20120;-77
2022/09/15 02:13:02;;;;;;;2.70;1.50;;;13.90;99.90;;;;;;4963980;28;20117;-79
2022/09/15 02:15:42;;;;;;;3.63;1.30;;;13.90;99.90;;;;;;5050910;28;20040;-77
2022/09/15 02:18:14;;;;;;;2.08;1.30;;;13.90;99.90;;;;;;5051509;28;20032;-77
2022/09/15 02:20:48;;;;;;;2.40;0.95;;;13.90;99.90;;;;;;5053977;28;20036;-77
2022/09/15 02:23:25;;;;;;;3.13;1.35;;;13.90;99.90;;;;;;5050858;28;20021;-77
2022/09/15 02:25:57;;;;;;;5.53;1.13;;;13.90;99.90;;;;;;5053843;28;20018;-77
2022/09/15 02:28:31;;;;;;;2.03;0.90;;;13.90;99.90;;;;;;5053486;28;20044;-78
2022/09/15 02:31:01;;;;;;;2.78;1.15;;;13.90;99.90;;;;;;5052284;28;20028;-78
2022/09/15 02:33:36;;;;;;;2.00;0.90;;;13.80;99.90;;;;;;5052818;28;20036;-78
2022/09/15 02:36:04;;;;;;;2.55;1.27;;;13.80;99.90;;;;;;5053880;28;20059;-78
2022/09/15 02:38:38;;;;;;;5.53;1.10;;;13.70;99.90;;;;;;5054159;28;20083;-78
2022/09/15 02:41:05;;;;;;;3.67;1.42;;;13.70;99.90;;;;;;5052780;28;20493;-77
2022/09/15 02:43:33;;;;;;;5.05;0.80;;;13.70;99.90;;;;;;5053220;28;20025;-78
2022/09/15 02:46:00;;;;;;;2.03;1.00;;;13.70;99.90;;;;;;5053690;28;20028;-79
2022/09/15 02:48:27;;;;;;;1.20;0.80;;;13.70;99.90;;;;;;5054495;28;20414;-77
2022/09/15 02:50:55;;;;;;;2.72;1.00;;;13.60;99.90;;;;;;5053528;28;20033;-78
2022/09/15 02:53:22;;;;;;;3.60;1.20;;;13.60;99.90;;;;;;5054873;28;20025;-78
2022/09/15 02:55:49;;;;;;;4.85;1.15;;;13.60;99.90;;;;;;5068881;28;20113;-76
2022/09/15 02:58:17;;;;;;;2.05;1.00;;;13.60;99.90;;;;;;5057912;28;20025;-76
2022/09/15 03:00:44;;;;;;;1.30;0.80;;;13.60;99.90;;;;;;5063089;28;20025;-77
2022/09/15 03:03:12;;;;;;;2.88;0.88;;;13.60;99.90;;;;;;5064626;28;20397;-76
2022/09/15 03:05:39;;;;;;;2.25;1.05;;;13.60;99.90;;;;;;5056336;28;20425;-76
2022/09/15 03:08:07;;;;;;;1.77;0.82;;;13.50;99.90;;;;;;5069022;28;20122;-76
2022/09/15 03:10:34;;;;;;;1.63;0.80;;;13.60;99.90;;;;;;5059637;28;20025;-76
2022/09/15 03:13:01;;;;;;;5.28;1.58;;;13.50;99.90;;;;;;5061101;28;20453;-76
2022/09/15 03:15:28;;;;;;;1.92;1.15;;;13.60;99.90;;;;;;5054023;28;20035;-76
2022/09/15 03:17:56;;;;;;;1.27;0.90;;;13.60;99.90;;;;;;5068854;28;20112;-76
2022/09/15 03:20:29;;;;;;;1.75;1.20;;;13.60;99.90;;;;;;5058307;28;20035;-77
2022/09/15 03:22:56;;;;;;;2.55;1.05;;;13.60;99.90;;;;;;5073903;28;20048;-76
2022/09/15 03:25:25;;;;;;;1.95;0.98;;;13.60;99.90;;;;;;5064335;28;20521;-76
2022/09/15 03:27:53;;;;;;;4.57;0.88;;;13.60;99.90;;;;;;5068922;28;20036;-76
2022/09/15 03:30:20;;;;;;;2.88;1.00;;;13.60;99.90;;;;;;5057356;28;20052;-77
2022/09/15 03:32:47;;;;;;;3.15;0.98;;;13.50;99.90;;;;;;5062283;28;20029;-77
2022/09/15 03:35:15;;;;;;;0.93;0.82;;;13.40;99.90;;;;;;5059327;28;20752;-75
2022/09/15 03:37:42;;;;;;;2.30;1.20;;;13.40;99.90;;;;;;5068494;28;20108;-76
2022/09/15 03:40:10;;;;;;;1.98;1.00;;;13.40;99.90;;;;;;5055594;28;20028;-75
2022/09/15 03:42:37;;;;;;;2.42;1.08;;;13.40;99.90;;;;;;5067559;28;20021;-76
2022/09/15 03:45:05;;;;;;;1.35;0.93;;;13.30;99.90;;;;;;5060179;28;20535;-75
2022/09/15 03:47:32;;;;;;;1.17;0.80;;;13.30;99.90;;;;;;5065060;28;20024;-77
2022/09/15 03:49:59;;;;;;;1.67;0.90;;;13.30;99.90;;;;;;5054685;28;20032;-77
2022/09/15 03:52:31;;;;;;;3.08;0.80;;;13.30;99.90;;;;;;5064874;28;20021;-76
2022/09/15 03:54:58;;;;;;;1.42;0.95;;;13.20;99.90;;;;;;5052022;28;20033;-75
2022/09/15 03:57:25;;;;;;;2.63;0.85;;;13.20;99.90;;;;;;5053130;28;20074;-75
2022/09/15 03:59:53;;;;;;;2.22;1.10;;;13.10;99.90;;;;;;5052481;28;20044;-76
2022/09/15 04:02:20;;;;;;;1.92;1.05;;;13.10;99.90;;;;;;5053086;28;20124;-76
2022/09/15 04:04:48;;;;;;;2.85;1.27;;;13.00;99.90;;;;;;5052772;28;20053;-75
2022/09/15 04:07:15;;;;;;;3.25;1.25;;;13.00;99.90;;;;;;5052899;28;20048;-75
2022/09/15 04:09:42;;;;;;;5.43;1.67;;;12.90;99.90;;;;;;5053210;28;20021;-76
2022/09/15 04:12:10;;;;;;;6.88;1.38;;;13.00;99.90;;;;;;5052618;28;20482;-76
2022/09/15 04:14:37;;;;;;;2.67;1.40;;;13.00;99.90;;;;;;5071148;28;20032;-76
2022/09/15 04:17:05;;;;;;;1.92;1.20;;;13.00;99.90;;;;;;5060888;28;20473;-75
2022/09/15 04:19:32;;;;;;;2.55;1.45;;;12.90;99.90;;;;;;5077104;28;20070;-79
2022/09/15 04:21:59;;;;;;;2.70;1.20;;;12.90;99.90;;;;;;5072134;28;20125;-77
2022/09/15 04:24:27;;;;;;;2.78;1.20;;;12.90;99.90;;;;;;5068515;28;20056;-79
2022/09/15 04:26:54;;;;;;;3.85;1.30;;;12.90;99.90;;;;;;5052666;28;20029;-75
2022/09/15 04:29:22;;;;;;;2.05;1.58;;;12.90;99.90;;;;;;5058094;28;20029;-79
2022/09/15 04:31:51;;;;;;;2.05;1.13;;;12.90;99.90;;;;;;5061756;28;20100;-80
2022/09/15 04:34:19;;;;;;;6.63;1.33;;;12.90;99.90;;;;;;5065315;28;20025;-81
2022/09/15 04:36:46;;;;;;;1.33;0.90;;;12.80;99.90;;;;;;5065448;28;20162;-79
2022/09/15 04:39:13;;;;;;;3.47;1.20;;;12.80;99.90;;;;;;5059480;28;20052;-80
2022/09/15 04:41:40;;;;;;;4.57;1.42;;;12.90;99.90;;;;;;5059540;28;20035;-78
2022/09/15 04:44:08;;;;;;;3.47;1.45;;;12.90;99.90;;;;;;5056250;28;20480;-75
2022/09/15 04:46:35;;;;;;;3.58;1.25;;;12.90;99.90;;;;;;5055796;28;20470;-77
2022/09/15 04:49:02;;;;;;;3.50;1.30;;;12.90;99.90;;;;;;5055432;28;20092;-78
2022/09/15 04:51:30;;;;;;;3.28;1.58;;;12.80;99.90;;;;;;5056270;28;20013;-78
2022/09/15 04:53:58;;;;;;;2.00;1.30;;;12.90;99.90;;;;;;5056442;28;20025;-79
2022/09/15 04:56:26;;;;;;;2.83;1.40;;;12.80;99.90;;;;;;5056566;28;20020;-78
2022/09/15 04:58:59;;;;;;;3.05;1.60;;;12.80;99.90;;;;;;5053175;28;20028;-77
2022/09/15 05:01:29;;;;;;;2.15;1.50;;;12.80;99.90;;;;;;5055358;28;20355;-79
2022/09/15 05:03:56;;;;;;;2.10;1.30;;;12.80;99.90;;;;;;5054281;28;20363;-79
2022/09/15 05:06:26;;;;;;;1.48;0.95;;;12.90;99.90;;;;;;5054393;28;20048;-78
2022/09/15 05:08:56;;;;;;;2.58;1.20;;;12.90;99.90;;;;;;5053516;28;20025;-76
2022/09/15 05:11:25;;;;;;;2.33;1.50;;;12.90;99.90;;;;;;5053847;28;20028;-78
2022/09/15 05:13:52;;;;;;;6.53;2.05;;;12.90;99.90;;;;;;5053098;28;20037;-76
2022/09/15 05:16:23;;;;;;;4.43;2.38;;;13.00;99.90;;;;;;5052940;28;20071;-79
2022/09/15 05:18:52;;;;;;;2.97;1.65;;;13.10;99.90;;;;;;5050217;28;20028;-76
2022/09/15 05:21:21;;;;;;;3.38;1.80;;;13.10;99.90;;;;;;5053174;28;20067;-76
2022/09/15 05:23:50;;;;;;;2.83;1.80;;;13.10;99.90;;;;;;5051944;28;20410;-78
2022/09/15 05:26:20;;;;;;;4.35;2.55;;;13.20;99.90;;;;;;5055022;28;20031;-77
2022/09/15 05:28:47;;;;;;;2.63;1.98;;;13.40;99.90;;;;;;5054706;28;20029;-80
2022/09/15 05:31:18;;;;;;;2.67;2.35;;;13.50;99.90;;;;;;5053934;28;20021;-77
2022/09/15 05:33:47;;;;;;;2.55;1.45;;;13.40;99.90;;;;;;5054620;28;20075;-79
2022/09/15 05:36:16;;;;;;;2.65;1.65;;;13.40;99.90;;;;;;5054801;28;20024;-77
2022/09/15 05:38:43;;;;;;;3.58;1.73;;;13.30;99.90;;;;;;5054609;28;20025;-79
2022/09/15 05:41:15;;;;;;;5.22;2.25;;;13.30;99.90;;;;;;5053363;28;20099;-79
2022/09/15 05:43:46;;;;;;;3.97;2.00;;;13.20;99.90;;;;;;5052195;28;20017;-79
2022/09/15 05:46:15;;;;;;;5.18;1.92;;;13.20;99.90;;;;;;5053244;28;20018;-80
2022/09/15 05:48:43;;;;;;;4.50;2.40;;;13.30;99.90;;;;;;5055719;28;20389;-81
2022/09/15 05:51:11;;;;;;;3.85;1.92;;;13.30;99.90;;;;;;5054849;28;20074;-80
2022/09/15 05:53:39;;;;;;;4.70;2.30;;;13.30;99.90;;;;;;5054700;28;20028;-80
2022/09/15 05:56:11;;;;;;;3.53;2.30;;;13.30;99.90;;;;;;5052534;28;20013;-80
2022/09/15 05:58:40;;;;;;;3.22;1.95;;;13.20;99.90;;;;;;5053152;28;20098;-79
2022/09/15 06:01:14;;;;;;;3.55;2.05;;;13.20;99.90;;;;;;5052362;28;20502;-79
2022/09/15 06:03:41;;;;;;;4.45;1.92;;;13.20;99.90;;;;;;5052263;28;20029;-78
2022/09/15 06:06:09;;;;;;;5.60;2.17;;;13.10;99.90;;;;;;5052390;28;20032;-79
2022/09/15 06:08:48;;;;;;;3.13;1.98;;;13.10;99.90;;;;;;5053127;28;20393;-79
2022/09/15 06:11:18;;;;;;;6.32;2.60;;;13.00;99.90;;;;;;5052634;28;20025;-79
2022/09/15 06:13:46;;;;;;;3.65;2.60;;;13.10;99.90;;;;;;5052827;28;20875;-79
2022/09/15 06:16:19;;;;;;;6.25;2.83;;;13.10;99.90;;;;;;5053282;28;20032;-78
2022/09/15 06:18:48;;;;;;;3.90;2.47;;;13.10;99.90;;;;;;5053564;28;20017;-78
2022/09/15 06:21:21;;;;;;;4.18;2.72;;;13.10;99.90;;;;;;5053563;28;20374;-80
2022/09/15 06:24:00;;;;;;;4.93;2.70;;;13.10;99.90;;;;;;5052354;28;20390;-82
2022/09/15 06:26:28;;;;;;;3.30;2.63;;;13.10;99.90;;;;;;5054034;28;20385;-86
2022/09/15 06:28:58;;;;;;;5.22;2.67;;;13.10;99.90;;;;;;5053222;28;20158;-83
2022/09/15 06:31:27;;;;;;;4.10;2.50;;;13.00;99.90;;;;;;5051649;28;20389;-84
2022/09/15 06:33:56;;;;;;;4.43;3.10;;;13.10;99.90;;;;;;5051304;28;20517;-78
2022/09/15 06:36:26;;;;;;;3.70;2.55;;;13.00;99.90;;;;;;5053250;28;20092;-81
2022/09/15 06:38:54;;;;;;;7.25;2.75;;;13.00;99.90;;;;;;5051940;28;20021;-80
2022/09/15 06:41:22;;;;;;;4.63;2.63;;;13.00;99.90;;;;;;5053310;28;20040;-78
2022/09/15 06:43:49;;;;;;;6.65;2.75;;;13.10;99.90;;;;;;5052183;28;20462;-78
2022/09/15 06:46:20;;;;;;;3.78;3.10;;;13.00;99.90;;;;;;5053681;28;20478;-83
2022/09/15 06:48:48;;;;;;;3.15;2.55;;;13.00;99.90;;;;;;5051911;28;20029;-89
2022/09/15 06:51:18;;;;;;;5.43;3.50;;;13.00;99.90;;;;;;5052863;28;20355;-82
2022/09/15 06:53:46;;;;;;;5.00;2.78;;;13.00;99.90;;;;;;5053009;28;20021;-87
2022/09/15 06:56:16;;;;;;;4.47;2.78;;;12.90;99.90;;;;;;5053049;28;20021;-81
2022/09/15 06:58:45;;;;;;;6.15;3.03;;;13.00;99.90;;;;;;5053292;28;20114;-88
2022/09/15 07:01:24;;;;;;;5.55;3.13;;;13.00;99.90;;;;;;5050874;28;20440;-83
2022/09/15 07:03:52;;;;;;;4.15;3.17;;;13.00;99.90;;;;;;5051826;28;20420;-87
2022/09/15 07:06:20;;;;;;;5.15;3.10;;;12.90;99.90;;;;;;5053110;28;20025;-78
2022/09/15 07:08:49;;;;;;;6.43;4.35;;;12.90;99.90;;;;;;5051747;28;20029;-79
2022/09/15 07:11:17;;;;;;;5.57;3.55;;;12.90;99.90;;;;;;5052229;28;20029;-79
2022/09/15 07:13:45;;;;;;;5.75;3.53;;;12.90;99.90;;;;;;5052382;28;20032;-80
2022/09/15 07:16:14;;;;;;;5.53;3.72;;;12.80;99.90;;;;;;5052996;28;20067;-80
2022/09/15 07:18:42;;;;;;;5.57;3.28;;;12.90;99.90;;;;;;5052231;28;20025;-83
2022/09/15 07:21:13;;;;;;;5.57;3.40;;;12.80;99.90;;;;;;5051004;28;20021;-79
2022/09/15 07:23:41;;;;;;;5.97;4.05;;;12.80;99.90;;;;;;5052826;28;20031;-80
2022/09/15 07:26:22;;;;;;;7.82;4.55;;;12.90;99.90;;;;;;5052799;28;20017;-78
2022/09/15 07:28:53;;;;;;;6.57;4.30;;;12.80;99.90;;;;;;5052497;28;20056;-80
2022/09/15 07:31:23;;;;;;;6.03;4.35;;;12.80;99.90;;;;;;5049098;28;20490;-80
2022/09/15 07:33:51;;;;;;;5.40;4.63;;;12.80;99.90;;;;;;5052249;28;20103;-80
2022/09/15 07:36:18;;;;;;;6.47;5.55;;;12.80;99.90;;;;;;5052512;28;20044;-79
2022/09/15 07:38:48;;;;;;;6.20;4.55;;;12.80;99.90;;;;;;5052398;28;20070;-79
2022/09/15 07:41:18;;;;;;;7.18;5.50;;;12.80;99.90;;;;;;5052457;28;20017;-80
2022/09/15 07:43:51;;;;;;;5.53;4.63;;;12.80;99.90;;;;;;5052612;28;20512;-78
2022/09/15 07:46:20;;;;;;;6.43;5.15;;;12.80;99.90;;;;;;5052750;28;20374;-79
2022/09/15 07:48:50;;;;;;;6.53;5.45;;;12.80;99.90;;;;;;5052617;28;20028;-79
2022/09/15 07:51:18;;;;;;;8.90;6.10;;;12.70;99.90;;;;;;5052526;28;20371;-78
2022/09/15 07:53:47;;;;;;;11.13;6.13;;;12.80;99.90;;;;;;5052425;28;20060;-78
2022/09/15 07:56:18;;;;;;;9.15;5.75;;;12.70;99.90;;;;;;5052599;28;20021;-80
2022/09/15 07:58:47;;;;;;;8.68;5.40;;;12.80;99.90;;;;;;5052212;28;20025;-78
2022/09/15 08:01:15;;;;;;;11.70;6.20;;;12.80;99.90;;;;;;5052078;28;20029;-79
2022/09/15 08:03:45;;;;;;;12.23;5.80;;;12.80;99.90;;;;;;5049777;28;20068;-78
2022/09/15 08:06:13;;;;;;;8.75;5.63;;;12.80;99.90;;;;;;5051231;28;20017;-78
2022/09/15 08:08:42;;;;;;;8.73;5.50;;;12.80;99.90;;;;;;5052198;28;20033;-79
2022/09/15 08:11:13;;;;;;;11.02;6.05;;;12.80;99.90;;;;;;5050674;28;20156;-80
2022/09/15 08:13:41;;;;;;;7.53;5.35;;;12.80;99.90;;;;;;5051025;28;20040;-79
2022/09/15 08:16:12;;;;;;;9.75;5.70;;;12.80;99.90;;;;;;5050374;28;20028;-81
2022/09/15 08:18:42;;;;;;;7.95;5.07;;;12.80;99.90;;;;;;5052626;28;20020;-81
2022/09/15 08:21:13;;;;;;;7.43;5.80;;;12.80;99.90;;;;;;5052313;28;20031;-80
2022/09/15 08:23:44;;;;;;;5.93;5.30;;;12.80;99.90;;;;;;5053584;28;20021;-80
2022/09/15 08:26:13;;;;;;;7.63;5.43;;;12.80;99.90;;;;;;5051830;28;20550;-80
2022/09/15 08:28:44;;;;;;;10.38;5.70;;;12.80;99.90;;;;;;5052480;28;20043;-81
2022/09/15 08:31:13;;;;;;;6.00;4.90;;;12.80;99.90;;;;;;5048484;28;20017;-80
2022/09/15 08:33:42;;;;;;;8.50;5.68;;;12.80;99.90;;;;;;5052499;28;20033;-81
2022/09/15 08:36:11;;;;;;;10.63;4.82;;;12.80;99.90;;;;;;5049717;28;20045;-81
2022/09/15 08:38:39;;;;;;;7.80;5.75;;;12.80;99.90;;;;;;5052504;28;20017;-81
2022/09/15 08:41:15;;;;;;;10.00;6.35;;;12.80;99.90;;;;;;5052463;28;20116;-81
2022/09/15 08:43:52;;;;;;;8.32;5.15;;;12.80;99.90;;;;;;5052472;28;20060;-81
2022/09/15 08:46:26;;;;;;;10.93;6.40;;;12.70;99.90;;;;;;5051219;28;20071;-81
2022/09/15 08:49:06;;;;;;;7.50;6.18;;;12.80;99.90;;;;;;5050370;28;20029;-81
2022/09/15 08:51:51;;;;;;;10.55;6.47;;;12.80;99.90;;;;;;5050328;28;20017;-81
2022/09/15 08:54:26;;;;;;;7.80;6.30;;;12.80;99.90;;;;;;5050765;28;20024;-81
2022/09/15 08:56:57;;;;;;;8.82;6.07;;;12.80;99.90;;;;;;5050179;28;20048;-81
2022/09/15 08:59:31;;;;;;;11.10;5.55;;;12.80;99.90;;;;;;5050480;28;20021;-81
2022/09/15 09:02:23;;;;;;;7.65;5.63;;;12.80;99.90;;;;;;5051551;28;20060;-81
2022/09/15 09:05:28;;;;;;;13.68;6.15;;;12.80;99.90;;;;;;5050553;28;20017;-80
2022/09/15 09:08:21;;;;;;;12.02;6.35;;;12.80;99.90;;;;;;5043630;28;20026;-79
2022/09/15 09:11:03;;;;;;;9.05;5.78;;;12.80;99.90;;;;;;5039009;28;20049;-79
2022/09/15 09:14:02;;;;;;;7.90;6.65;;;12.70;99.90;;;;;;5036934;28;20653;-81
2022/09/15 09:16:54;;;;;;;8.32;5.40;;;12.70;99.90;;;;;;5035359;28;20489;-81
2022/09/15 09:19:41;;;;;;;8.55;6.72;;;12.80;99.90;;;;;;5051003;28;20026;-80
2022/09/15 09:22:13;;;;;;;7.05;6.13;;;12.70;99.90;;;;;;5037122;28;20017;-81
2022/09/15 09:24:51;;;;;;;10.82;6.03;;;12.80;99.90;;;;;;5039412;28;20037;-81
2022/09/15 09:27:23;;;;;;;6.95;6.25;;;12.70;99.90;;;;;;5035340;28;20082;-79
2022/09/15 09:29:59;;;;;;;9.77;6.57;;;12.80;99.90;;;;;;5037329;28;20130;-81
2022/09/15 09:32:39;;;;;;;8.65;6.55;;;12.70;99.90;;;;;;5035259;28;20018;-79
2022/09/15 09:35:15;;;;;;;9.90;6.43;;;12.70;99.90;;;;;;5049267;28;20048;-81
2022/09/15 09:37:43;;;;;;;11.73;6.80;;;12.80;99.90;;;;;;5036685;28;20094;-82
2022/09/15 09:40:17;;;;;;;8.63;6.10;;;12.80;99.90;;;;;;5044456;28;20032;-81
2022/09/15 09:42:46;;;;;;;7.72;5.80;;;12.80;99.90;;;;;;5052272;28;20024;-78
2022/09/15 09:45:17;;;;;;;6.35;5.18;;;12.80;99.90;;;;;;5044427;28;20504;-80
2022/09/15 09:47:48;;;;;;;8.60;5.65;;;12.80;99.90;;;;;;5036614;28;20065;-80
2022/09/15 09:50:37;;;;;;;5.93;5.25;;;12.80;99.90;;;;;;5037467;28;20025;-79
2022/09/15 09:53:31;;;;;;;7.53;5.30;;;12.80;99.90;;;;;;5036719;28;20104;-80
2022/09/15 09:56:26;;;;;;;7.80;5.03;;;12.80;99.90;;;;;;5035010;28;20433;-79
2022/09/15 09:58:54;;;;;;;6.30;5.35;;;12.80;99.90;;;;;;5034960;28;20045;-81
2022/09/15 10:01:29;;;;;;;6.65;5.97;;;12.80;99.90;;;;;;5033553;28;20449;-80
2022/09/15 10:04:22;;;;;;;6.30;5.70;;;12.80;99.90;;;;;;5036280;28;20033;-79
2022/09/15 10:06:50;;;;;;;6.07;5.50;;;12.80;99.90;;;;;;5036898;28;20041;-81
2022/09/15 10:09:19;;;;;;;13.20;6.97;;;12.80;99.90;;;;;;5043311;28;20440;-81
2022/09/15 10:11:53;;;;;;;8.13;6.72;;;12.80;99.90;;;;;;5051539;28;20013;-80
2022/09/15 10:14:34;;;;;;;8.10;5.82;;;12.80;99.90;;;;;;5061606;28;20480;-81
2022/09/15 10:17:14;;;;;;;6.88;6.22;;;12.80;99.90;;;;;;5068839;28;20032;-82
2022/09/15 10:19:53;;;;;;;9.35;5.28;;;12.90;99.90;;;;;;5069367;28;20385;-82
2022/09/15 10:22:30;;;;;;;6.45;5.38;;;12.90;99.90;;;;;;5071980;28;20359;-82
2022/09/15 10:25:01;;;;;;;6.03;5.43;;;12.90;99.90;;;;;;5069378;28;20013;-81
2022/09/15 10:27:30;;;;;;;6.13;5.40;;;12.80;99.90;;;;;;5069967;28;20021;-80
2022/09/15 10:30:17;;;;;;;8.30;5.85;;;12.90;99.90;;;;;;5069408;28;20040;-82
2022/09/15 10:32:45;;;;;;;9.32;7.28;;;12.80;99.90;;;;;;5070982;28;20028;-82
2022/09/15 10:35:18;;;;;;;9.00;6.97;;;12.80;99.90;;;;;;5070286;28;20020;-81
2022/09/15 10:38:07;;;;;;;9.02;8.07;;;12.90;99.90;;;;;;5071791;28;20094;-79
2022/09/15 10:40:38;;;;;;;15.70;14.10;;;12.90;99.90;;;;;;5065260;28;20048;-79
2022/09/15 10:43:05;;;;;;;8.75;7.78;;;12.90;99.90;;;;;;5068308;28;20021;-79
2022/09/15 10:45:41;;;;;;;18.50;8.77;;;12.90;99.90;;;;;;5067944;28;20100;-82
2022/09/15 10:48:45;;;;;;;10.63;9.52;;;12.90;99.90;;;;;;5069976;28;20024;-81
2022/09/15 10:51:33;;;;;;;8.35;6.88;;;12.90;99.90;;;;;;5071257;28;20115;-80
2022/09/15 10:54:24;;;;;;;7.30;6.40;;;13.00;99.90;;;;;;5070971;28;20074;-82
2022/09/15 10:57:10;;;;;;;7.05;5.88;;;13.00;99.90;;;;;;5068552;28;20017;-81
2022/09/15 10:59:44;;;;;;;13.85;10.15;;;13.00;99.90;;;;;;5067505;28;20024;-81
2022/09/15 11:02:41;;;;;;;8.45;5.78;;;13.00;99.90;;;;;;5068928;28;20045;-81
2022/09/15 11:05:34;;;;;;;;;;;13.00;99.90;;;;;;5070774;28;20765;-83
2022/09/15 11:08:19;;;;;;;6.70;4.93;;;13.00;99.90;;;;;;5050207;28;20012;-81
2022/09/15 11:11:11;;;;;;;7.88;5.38;;;13.00;99.90;;;;;;5053152;28;20021;-82
2022/09/15 11:14:03;;;;;;;;;;;13.00;99.90;;;;;;5053056;28;20055;-84
2022/09/15 11:16:43;;;;;;;8.48;7.57;;;13.00;99.90;;;;;;5053038;28;20276;-83
2022/09/15 11:19:26;;;;;;;8.65;6.88;;;13.00;99.90;;;;;;5053364;28;20009;-83
2022/09/15 11:22:05;;;;;;;5.78;5.20;;;13.00;99.90;;;;;;5050859;28;20028;-83
2022/09/15 11:24:57;;;;;;;6.43;5.70;;;12.90;99.90;;;;;;5052671;28;20065;-80
2022/09/15 11:27:35;;;;;;;7.07;5.53;;;13.00;99.90;;;;;;5053140;28;20029;-82
2022/09/15 11:30:21;;;;;;;8.85;5.65;;;12.90;99.90;;;;;;5052909;28;20013;-80
2022/09/15 11:32:55;;;;;;;6.88;6.22;;;13.00;99.90;;;;;;5052874;28;20048;-82
2022/09/15 11:35:58;;;;;;;7.55;5.70;;;12.90;99.90;;;;;;5051906;28;20021;-82
2022/09/15 11:38:36;;;;;;;5.88;5.28;;;13.00;99.90;;;;;;5052776;28;20555;-79
2022/09/15 11:41:39;;;;;;;6.47;5.53;;;13.00;99.90;;;;;;5053103;28;20029;-80
2022/09/15 11:44:24;;;;;;;5.75;5.20;;;13.00;99.90;;;;;;5042097;28;20025;-80
2022/09/15 11:47:23;;;;;;;7.22;6.53;;;13.00;99.90;;;;;;5052593;28;20472;-81
2022/09/15 11:50:05;;;;;;;7.30;6.63;;;13.10;99.90;;;;;;5052377;28;20025;-79
2022/09/15 11:52:57;;;;;;;7.70;6.60;;;13.00;99.90;;;;;;5049678;28;20025;-79
2022/09/15 11:55:41;;;;;;;9.40;7.88;;;13.00;99.90;;;;;;5051535;28;20017;-81
2022/09/15 11:58:36;;;;;;;8.57;7.13;;;13.00;99.90;;;;;;5052300;28;20021;-80
2022/09/15 12:01:08;;;;;;;9.95;8.35;;;13.00;99.90;;;;;;5051759;28;20485;-80
2022/09/15 12:03:39;;;;;;;13.65;7.28;;;13.00;99.90;;;;;;5052200;28;20124;-79
2022/09/15 12:06:37;;;;;;;4.85;4.35;;;13.00;99.90;;;;;;5051998;28;20017;-79
2022/09/15 12:09:06;;;;;;;5.30;4.80;;;13.00;99.90;;;;;;5052471;28;20082;-82
2022/09/15 12:11:47;;;;;;;5.07;4.53;;;12.90;99.90;;;;;;5052476;28;20595;-80
2022/09/15 12:14:44;;;;;;;6.53;5.72;;;12.90;99.90;;;;;;5051032;28;20104;-81
2022/09/15 12:17:41;;;;;;;6.10;4.85;;;12.90;99.90;;;;;;5064008;28;20052;-81
2022/09/15 12:20:49;;;;;;;3.65;2.95;;;12.90;99.90;;;;;;5052404;28;20021;-80
2022/09/15 12:23:46;;;;;;;2.92;2.63;;;13.00;99.90;;;;;;5050541;28;20029;-79
2022/09/15 12:26:18;;;;;;;1.08;0.85;;;12.90;99.90;;;;;;5044800;28;20037;-78
2022/09/15 12:28:55;;;;;;;1.23;0.93;;;12.90;99.90;;;;;;5052280;28;20057;-81
2022/09/15 12:31:33;;;;;;;0.57;0.57;;;12.80;99.90;;;;;;5051212;28;20028;-76
2022/09/15 12:34:04;;;;;;;1.38;0.88;;;12.70;99.90;;;;;;5050901;28;20032;-81
2022/09/15 12:36:38;;;;;;;2.85;1.73;;;12.60;99.90;;;;;;5049626;28;20013;-80
2022/09/15 12:39:28;;;;;;;3.47;1.92;;;12.60;99.90;;;;;;5055861;28;20016;-81
2022/09/15 12:42:07;;;;;;;2.75;2.13;;;12.60;99.90;;;;;;5053997;28;20017;-80
2022/09/15 12:44:59;;;;;;;2.95;2.38;;;12.60;99.90;;;;;;5054452;28;20681;-81
2022/09/15 12:47:34;;;;;;;4.57;3.28;;;12.60;99.90;;;;;;5055290;28;20478;-76
2022/09/15 12:50:14;;;;;;;4.25;3.88;;;12.60;99.90;;;;;;5053108;28;20682;-78
2022/09/15 12:52:52;;;;;;;8.88;4.50;;;12.60;99.90;;;;;;5051398;28;20025;-79
2022/09/15 12:55:37;;;;;;;6.45;5.22;;;12.60;99.90;;;;;;5054603;28;20085;-80
2022/09/15 12:58:17;;;;;;;8.93;5.00;;;12.50;99.90;;;;;;5054520;28;20021;-80
2022/09/15 13:00:46;;;;;;;6.25;5.65;;;12.50;99.90;;;;;;5069217;28;20036;-80
2022/09/15 13:03:32;;;;;;;6.63;5.97;;;12.50;99.90;;;;;;5054743;28;20432;-80
2022/09/15 13:06:24;;;;;;;6.38;5.72;;;12.40;99.90;;;;;;5053084;28;20664;-79
2022/09/15 13:09:06;;;;;;;5.40;4.90;;;12.40;99.90;;;;;;5052714;28;20067;-79
2022/09/15 13:11:38;;;;;;;6.97;6.28;;;12.40;99.90;;;;;;5054781;28;20013;-79
2022/09/15 13:14:09;;;;;;;8.82;5.15;;;12.40;99.90;;;;;;5054818;28;20029;-77
2022/09/15 13:16:43;;;;;;;4.45;4.05;;;12.40;99.90;;;;;;5055318;28;20343;-76
2022/09/15 13:19:40;;;;;;;6.03;5.38;;;12.40;99.90;;;;;;5054341;28;20071;-79
2022/09/15 13:22:35;;;;;;;18.13;9.88;;;12.40;99.90;;;;;;5054456;28;20171;-77
2022/09/15 13:25:13;;;;;;;3.70;2.55;;;12.40;99.90;;;;;;5053090;28;20045;-77
2022/09/15 13:27:53;;;;;;;8.82;3.92;;;12.40;99.90;;;;;;5053819;28;20036;-78